Latest Weather Observations for Wilcannia Airport

IDN60801

Issued at 3:05 pm EST Friday 25 July 2014 (issued every 30 minutes, with the page automatically refreshed every 10 minutes)

About weather observations | Map of weather stations | Latest weather observations for NSW | Other Formats
Station Details ID: 046012 Name: WILCANNIA AERODROME AWS Lat: -31.52 Lon: 143.38 Height: 94.3 m
Data from the previous 72 hours. | See also: Recent months for locations in New South Wales
Date/Time
EST
Temp
°C
App
Temp
°C
Dew
Point
Rel
Hum
%
Delta-T
°C
Wind Press
QNH
hPa
Press
MSL
hPa
Rain
since 9 am
mm
Dir
 
Spd
km/h
Gust
km/h
Spd
kts
Gust
kts
25/03:00pm 19.7 16.5 3.0 33 7.8 WSW 9 13 5 7 1019.3 1019.4 0.0
25/02:30pm 19.9 16.8 3.6 34 7.7 SW 9 13 5 7 1019.2 - 0.0
25/02:00pm 19.1 16.3 3.3 35 7.4 WNW 7 17 4 9 1019.3 1019.4 0.0
25/01:30pm 20.1 17.1 4.2 35 7.7 WSW 9 17 5 9 1019.6 - 0.0
25/01:00pm 20.0 17.5 3.7 34 7.8 NW 6 15 3 8 1019.9 1020.0 0.0
25/12:30pm 20.3 17.7 4.4 35 7.7 NW 7 13 4 7 1020.4 - 0.0
25/12:00pm 18.9 16.6 4.7 39 6.8 SSW 6 9 3 5 1020.6 1020.7 0.0
25/11:30am 18.4 15.5 4.6 40 6.6 ESE 9 13 5 7 1021.4 - 0.0
25/11:00am 17.9 15.4 4.8 42 6.3 ESE 7 11 4 6 1021.8 1021.9 0.0
25/10:30am 17.6 15.3 4.9 43 6.1 E 6 9 3 5 1021.8 - 0.0
25/10:00am 16.2 14.2 4.6 46 5.5 N 4 9 2 5 1021.9 1022.0 0.0
25/09:30am 14.8 11.8 4.2 49 4.9 NNE 9 11 5 6 1021.7 - 0.0
25/09:00am 12.9 10.3 4.3 56 3.9 NE 7 9 4 5 1021.2 1021.3 0.0
25/08:30am 10.3 8.0 4.9 69 2.4 NNE 6 7 3 4 1020.7 - 0.0
25/08:28am 10.0 7.7 4.8 70 2.3 NNE 6 7 3 4 1020.6 - 0.0
25/08:00am 5.0 3.3 1.8 80 1.3 CALM 0 0 0 0 1020.4 1020.5 0.0
25/07:30am 3.9 0.8 1.4 84 1.0 N 7 9 4 5 1020.0 - 0.0
25/07:00am 5.0 1.2 1.7 79 1.3 NNW 11 13 6 7 1019.6 1019.7 0.0
25/06:30am 5.3 1.2 2.5 82 1.1 NNW 13 15 7 8 1019.0 - 0.0
25/06:00am 4.8 1.5 2.2 83 1.0 NNW 9 11 5 6 1018.7 1018.8 0.0
25/05:30am 5.2 1.1 2.0 80 1.3 NNW 13 15 7 8 1018.3 - 0.0
25/05:00am 5.1 0.6 1.9 80 1.3 NNE 15 17 8 9 1017.9 1018.0 0.0
25/04:30am 4.6 0.4 1.5 80 1.2 ENE 13 15 7 8 1017.8 - 0.0
25/04:00am 5.5 2.2 2.7 82 1.1 WNW 9 11 5 6 1017.4 1017.5 0.0
25/03:30am 5.1 2.0 1.6 78 1.4 W 7 9 4 5 1017.2 - 0.0
25/03:00am 6.1 2.5 2.7 79 1.4 W 11 13 6 7 1016.9 1017.0 0.0
25/02:30am 6.5 2.8 2.2 74 1.8 WSW 11 13 6 7 1016.9 - 0.0
25/02:00am 7.5 3.6 3.2 74 1.8 WSW 13 15 7 8 1016.7 1016.8 0.0
25/01:30am 6.8 2.7 2.5 74 1.8 W 13 13 7 7 1016.8 - 0.0
25/01:00am 7.2 3.5 2.3 71 2.0 WNW 11 13 6 7 1016.9 1017.0 0.0
25/12:30am 7.7 3.7 2.6 70 2.1 NW 13 15 7 8 1017.1 - 0.0
25/12:00am 8.1 4.4 2.4 67 2.4 W 11 13 6 7 1017.0 1017.1 0.0
 
Date/Time
EST
Temp
°C
App
Temp
°C
Dew
Point
Rel
Hum
%
Delta-T
°C
Wind Press
QNH
hPa
Press
MSL
hPa
Rain
since 9 am
mm
Dir
 
Spd
km/h
Gust
km/h
Spd
kts
Gust
kts
24/11:30pm 8.3 4.2 2.1 65 2.6 W 13 13 7 7 1016.8 - 0.0
24/11:00pm 8.7 4.2 2.3 64 2.7 W 15 15 8 8 1016.9 1017.0 0.0
24/10:30pm 9.3 4.8 1.9 60 3.1 W 15 17 8 9 1016.9 - 0.0
24/10:00pm 10.1 5.6 2.0 57 3.4 W 15 15 8 8 1016.8 1016.9 0.0
24/09:30pm 11.2 6.7 2.2 54 3.9 WNW 15 17 8 9 1016.7 - 0.0
24/09:00pm 12.0 7.6 2.5 52 4.1 NW 15 17 8 9 1016.3 1016.4 0.0
24/08:30pm 11.9 7.4 2.1 51 4.2 NW 15 17 8 9 1016.1 - 0.0
24/08:00pm 12.3 8.1 1.9 49 4.5 WNW 13 15 7 8 1015.8 1015.9 0.0
24/07:30pm 13.2 8.3 2.1 47 4.8 WNW 17 19 9 10 1015.5 - 0.0
24/07:00pm 14.0 9.5 2.3 45 5.2 WNW 15 17 8 9 1015.0 1015.1 0.0
24/06:30pm 14.3 10.0 1.2 41 5.7 WNW 13 15 7 8 1014.5 - 0.0
24/06:00pm 16.8 12.5 0.9 34 7.0 NW 13 15 7 8 1014.1 1014.2 0.0
24/05:30pm 19.4 14.0 1.4 30 8.2 NW 19 26 10 14 1013.8 - 0.0
24/05:00pm 20.7 14.4 1.6 28 8.8 NW 24 33 13 18 1013.5 1013.6 0.0
24/04:30pm 21.4 15.2 2.2 28 9.0 NW 24 37 13 20 1013.2 - 0.0
24/04:00pm 21.7 15.5 1.9 27 9.2 NW 24 33 13 18 1013.0 1013.0 0.0
24/03:30pm 22.1 16.6 1.7 26 9.5 NW 20 33 11 18 1012.5 - 0.0
24/03:00pm 22.0 15.7 1.6 26 9.5 WNW 24 33 13 18 1012.3 1012.4 0.0
24/02:30pm 22.1 15.8 1.7 26 9.5 NW 24 32 13 17 1012.4 - 0.0
24/02:00pm 21.7 14.9 0.8 25 9.6 WNW 26 33 14 18 1012.7 1012.8 0.0
24/01:30pm 21.3 14.7 -0.1 24 9.6 WNW 24 33 13 18 1013.0 - 0.0
24/01:00pm 21.4 15.4 1.1 26 9.3 NW 22 33 12 18 1013.2 1013.2 0.0
24/12:30pm 21.0 14.7 1.3 27 9.0 NW 24 35 13 19 1013.8 - 0.0
24/12:00pm 20.5 13.8 1.4 28 8.7 NNW 26 35 14 19 1014.2 1014.3 0.0
24/11:30am 20.0 13.7 1.4 29 8.5 NNW 24 35 13 19 1014.5 - 0.0
24/11:00am 18.8 11.7 1.3 31 7.9 N 28 35 15 19 1014.7 1014.8 0.0
24/10:30am 17.8 11.1 1.3 33 7.4 N 26 35 14 19 1014.8 - 0.0
24/10:00am 16.8 10.1 1.7 36 6.7 N 26 41 14 22 1015.0 1015.1 0.0
24/09:30am 15.0 9.7 2.9 44 5.5 N 20 30 11 16 1014.9 - 0.0
24/09:00am 13.7 8.6 4.3 53 4.3 NNE 20 26 11 14 1014.8 1014.9 0.0
24/08:30am 11.5 7.1 4.9 64 3.0 NE 17 22 9 12 1014.6 - 0.0
24/08:00am 9.2 5.1 4.2 71 2.2 NE 15 19 8 10 1014.7 1014.8 0.0
24/07:30am 9.5 5.4 4.3 70 2.3 NE 15 19 8 10 1014.6 - 0.0
24/07:00am 9.5 4.6 4.3 70 2.3 NE 19 24 10 13 1014.4 1014.5 0.0
24/06:30am 10.0 4.9 4.2 67 2.6 NE 20 24 11 13 1014.2 - 0.0
24/06:00am 10.4 6.3 4.1 65 2.8 NE 15 19 8 10 1013.8 1013.9 0.0
24/05:30am 10.3 6.2 4.2 66 2.7 ENE 15 17 8 9 1013.6 - 0.0
24/05:00am 10.6 6.5 4.3 65 2.8 ENE 15 17 8 9 1013.6 1013.7 0.0
24/04:30am 10.9 6.5 4.6 65 2.9 ENE 17 20 9 11 1013.5 - 0.0
24/04:00am 10.5 5.8 5.1 69 2.5 E 19 24 10 13 1013.7 1013.8 0.0
24/03:30am 9.9 7.2 5.5 74 2.0 E 9 20 5 11 1014.6 - 0.0
24/03:00am 10.5 9.3 4.6 67 2.7 CALM 0 0 0 0 1015.0 1015.1 0.0
24/02:30am 10.5 8.2 5.5 71 2.3 N 7 11 4 6 1015.1 - 0.0
24/02:00am 10.2 6.7 5.4 72 2.2 SW 13 15 7 8 1015.3 1015.4 0.0
24/01:30am 10.6 7.5 3.6 62 3.1 NE 9 11 5 6 1014.2 - 0.0
24/01:00am 10.6 7.1 3.4 61 3.2 NE 11 17 6 9 1014.2 1014.3 0.0
24/12:30am 11.1 6.2 3.9 61 3.2 NE 19 26 10 14 1014.3 - 0.0
24/12:00am 11.0 6.4 3.8 61 3.2 NE 17 24 9 13 1014.7 1014.8 0.0
 
Date/Time
EST
Temp
°C
App
Temp
°C
Dew
Point
Rel
Hum
%
Delta-T
°C
Wind Press
QNH
hPa
Press
MSL
hPa
Rain
since 9 am
mm
Dir
 
Spd
km/h
Gust
km/h
Spd
kts
Gust
kts
23/11:30pm 10.6 6.1 4.1 64 2.9 NE 17 20 9 11 1015.1 - 0.0
23/11:00pm 8.4 3.9 2.4 66 2.5 NE 15 17 8 9 1015.6 1015.7 0.0
23/10:30pm 8.4 4.3 2.0 64 2.7 ENE 13 15 7 8 1015.7 - 0.0
23/10:00pm 9.0 4.9 2.3 63 2.8 ENE 13 15 7 8 1015.9 1016.0 0.0
23/09:30pm 9.9 5.5 2.5 60 3.2 ENE 15 17 8 9 1016.2 - 0.0
23/09:00pm 10.4 6.3 2.3 57 3.5 NE 13 15 7 8 1016.6 1016.7 0.0
23/08:30pm 10.5 6.0 2.4 57 3.5 ENE 15 17 8 9 1016.7 - 0.0
23/08:00pm 10.7 6.6 2.0 55 3.7 NE 13 15 7 8 1016.9 1017.0 0.0
23/07:30pm 12.7 8.7 2.6 50 4.4 ENE 13 15 7 8 1016.9 - 0.0
23/07:00pm 14.5 11.0 3.3 47 5.1 NE 11 13 6 7 1017.0 1017.1 0.0
23/06:30pm 15.3 11.8 3.5 45 5.4 NE 11 15 6 8 1017.0 - 0.0
23/06:00pm 16.0 11.7 3.4 43 5.8 NE 15 20 8 11 1016.7 1016.8 0.0
23/05:30pm 17.3 12.7 3.9 41 6.3 ENE 17 22 9 12 1016.8 - 0.0
23/05:00pm 17.7 12.8 3.9 40 6.5 NE 19 24 10 13 1017.2 1017.3 0.0
23/04:30pm 18.1 13.5 3.9 39 6.7 NE 17 24 9 13 1017.0 - 0.0
23/04:00pm 18.3 13.4 4.1 39 6.7 NNE 19 24 10 13 1017.0 1017.1 0.0
23/03:30pm 18.4 13.5 4.2 39 6.8 NNE 19 26 10 14 1017.0 - 0.0
23/03:00pm 18.1 13.6 4.3 40 6.6 NE 17 24 9 13 1017.2 1017.3 0.0
23/02:30pm 18.5 13.5 4.7 40 6.6 NNE 20 28 11 15 1017.3 - 0.0
23/02:00pm 20.3 15.3 4.8 36 7.6 NNE 20 30 11 16 1017.7 1017.8 0.0
23/01:30pm 19.8 14.9 5.1 38 7.2 NNE 20 30 11 16 1018.4 - 0.0
23/01:00pm 19.0 14.1 5.1 40 6.8 NNE 20 28 11 15 1019.0 1019.1 0.0
23/12:30pm 17.8 12.2 5.4 44 6.0 NNE 24 32 13 17 1019.7 - 0.0
23/12:00pm 17.9 12.9 6.4 47 5.7 N 22 32 12 17 1020.6 1020.7 0.0
23/11:30am 16.8 12.3 6.9 52 4.9 NNE 20 26 11 14 1021.0 - 0.0
23/11:00am 16.7 12.4 6.8 52 4.9 NNE 19 26 10 14 1021.3 1021.4 0.0
23/10:30am 14.9 10.5 6.5 57 4.1 NE 19 24 10 13 1021.5 - 0.0
23/10:00am 13.7 9.5 5.8 59 3.7 NE 17 24 9 13 1021.6 1021.7 0.0
23/09:30am 12.4 7.6 4.9 60 3.5 ENE 19 28 10 15 1020.8 - 0.0
23/09:00am 9.9 5.3 3.9 66 2.6 ENE 17 22 9 12 1021.0 1021.1 0.0
23/08:30am 8.0 3.7 3.3 72 2.0 E 15 20 8 11 1021.4 - 0.0
23/08:00am 6.5 2.5 3.1 79 1.4 E 13 17 7 9 1021.8 1021.9 0.0
23/07:30am 3.6 0.0 0.5 80 1.2 NE 9 11 5 6 1021.9 - 0.0
23/07:00am 4.1 0.2 1.1 81 1.2 NE 11 13 6 7 1021.8 1021.9 0.0
23/06:30am 4.8 0.7 2.0 82 1.1 E 13 13 7 7 1021.5 - 0.0
23/06:00am 3.9 0.0 1.4 84 1.0 E 11 13 6 7 1021.1 1021.2 0.0
23/05:30am 2.5 -1.8 -1.3 76 1.4 E 11 11 6 6 1021.0 - 0.0
23/05:00am 3.0 -0.6 0.6 84 0.9 E 9 9 5 5 1021.0 1021.1 0.0
23/04:30am 3.4 1.5 0.5 81 1.1 CALM 0 0 0 0 1021.1 - 0.0
23/04:00am 4.0 2.1 0.7 79 1.3 CALM 0 0 0 0 1021.2 1021.3 0.0
23/03:30am 3.4 1.4 0.1 79 1.2 CALM 0 0 0 0 1021.3 - 0.0
23/03:00am 3.0 -0.7 -0.1 80 1.1 SSE 9 11 5 6 1021.4 1021.5 0.0
23/02:30am 4.4 1.3 1.6 82 1.1 S 7 9 4 5 1021.5 - 0.0
23/02:00am 4.1 1.0 1.1 81 1.2 SSW 7 9 4 5 1021.8 1021.9 0.0
23/01:30am 3.2 -0.7 -1.3 72 1.6 SSW 9 9 5 5 1021.8 - 0.0
23/01:00am 4.4 0.7 0.2 74 1.6 WSW 9 9 5 5 1022.2 1022.4 0.0
23/12:30am 5.0 2.0 0.9 75 1.6 SSW 6 7 3 4 1022.2 - 0.0
23/12:00am 5.4 1.5 1.0 73 1.7 S 11 11 6 6 1022.2 1022.4 0.0
 
Date/Time
EST
Temp
°C
App
Temp
°C
Dew
Point
Rel
Hum
%
Delta-T
°C
Wind Press
QNH
hPa
Press
MSL
hPa
Rain
since 9 am
mm
Dir
 
Spd
km/h
Gust
km/h
Spd
kts
Gust
kts
22/11:30pm 6.7 2.9 1.6 70 2.1 S 11 11 6 6 1022.5 - 0.0
22/11:00pm 6.2 2.3 1.3 71 2.0 SSW 11 13 6 7 1022.4 1022.6 0.0
22/10:30pm 6.0 2.2 1.5 73 1.8 SSW 11 11 6 6 1022.6 - 0.0
22/10:00pm 6.5 3.0 1.2 69 2.1 SW 9 9 5 5 1022.7 1022.9 0.0
22/09:30pm 6.3 2.8 1.0 69 2.1 SSW 9 9 5 5 1022.4 - 0.0
22/09:00pm 7.6 4.1 1.2 64 2.6 WSW 9 9 5 5 1022.6 1022.8 0.0
22/08:30pm 8.3 4.8 1.2 61 2.9 W 9 11 5 6 1022.7 - 0.0
22/08:00pm 8.1 5.2 1.3 62 2.8 S 6 7 3 4 1022.4 1022.6 0.0
22/07:30pm 8.0 4.7 -0.2 56 3.2 S 7 7 4 4 1022.2 - 0.0
22/07:00pm 9.8 6.2 0.7 53 3.7 SSE 9 11 5 6 1022.0 1022.1 0.0
22/06:30pm 11.9 8.5 1.8 50 4.3 SSE 9 11 5 6 1022.1 - 0.0
22/06:00pm 13.4 9.5 1.1 43 5.2 SSE 11 13 6 7 1021.6 1021.7 0.0
22/05:30pm 16.0 12.5 1.0 36 6.6 SSE 9 11 5 6 1021.7 - 0.0
22/05:00pm 17.3 13.7 0.9 33 7.2 SE 9 13 5 7 1021.7 1021.8 0.0
22/04:30pm 18.0 14.9 1.1 32 7.5 ESE 7 11 4 6 1021.8 - 0.0
22/04:00pm 18.6 15.2 2.0 33 7.5 SSW 9 13 5 7 1021.8 1021.9 0.0
22/03:30pm 18.7 15.7 1.7 32 7.7 SSW 7 20 4 11 1021.9 - 0.0

Other Formats:

Comma delimited format used in spreadsheet applications
http://www.bom.gov.au/fwo/IDN60801/IDN60801.95695.axf

JavaScript Object Notation format (JSON) in row-major order
http://www.bom.gov.au/fwo/IDN60801/IDN60801.95695.json